Kezdőlap
METAR-TAF:

METAR-TAF

Repülőterek :

Mandalay, Mianmar

földrajzi szélesség: 21-59N, földrajzi hosszúság: 096-06E, magasság: 74 m

Jelenlegi meteorológiai megfigyelések

A jelentés 9 órával és 1 perccel ezelõtt készült, 11:30 UTC
Északi szél 2 kt
Hőmérséklet 31°C
Páratartalom 38%
Légköri nyomás 1010 hPa
Látótávolság: 6000 m
Száraz légköri homály,

METAR: VYMD 261130Z 36002KT 6000 HZ NSC 31/15 Q1010

Idő: 03:01 (20:31 UTC)

Előrejelzés

A jelentés 3 órával és 31 perccel ezelõtt készült, 17:00 UTC
Az előrejelzés 26-én 18 óra UTC és 27-én 18 óra UTC között érvényes
Északi szél 3 kt
Látótávolság: 7000 m
Kevés felhő 2500 lábon
26-én 18 óra UTC és 26-én 24 óra UTC között ideiglenes
Északnyugati szél 4 kt
Látótávolság: 5000 m
Kevés felhő 2000 lábon
Párásság,

TAF: VYMD 261700Z 2618/2718 36003KT 7000 FEW025 TEMPO 2618/2624 32004KT 5000 BR FEW020

Meteorológiai megfigyelések és előrejelzések több, mint 4000 repülőtéren (METAR és TAF jelentéseket).

A térképen piros és sárga pontok jelzik az elérhető meteorológiai állomásokat.

Mozgassa az egeret a pont fölött, hogy megjelenjen az állomás neve.

Azután kattintson az időjárási megfigyelések és előrejelzések megtekintéséhez.

A térkép megváltoztatása: kattintson a fekete keresztel jelölt zöld gombra ráközelítéshez, a vonallal jelölt zöld gombra távolításhoz, vagy a zöld nyilakra a szomszédos térképek eléréséhez.


METAR-TAF: